CheckWX is a tool to help pilots better visualize weather data.  It is not intended as a substitute for an official pre-flight weather briefing.

03:24:41 UTC

KCPS METAR
St Louis Downtown Airport
Cahokia/St Louis, Illinois, USA
Current

32 mins ago

KCPS 230253Z 00000KT 10SM BKN047 BKN060 23/21 A2994 RMK AO2 RAE0155 SLP134 P0000 60001 T02330211 50005
Observed
Sep-23 @ 02:53 UTC
Visibility
10 SM
Flight Rules
VFR
Cloud Levels
  • Broken at 4,700' AGL
  • Broken at 6,000' AGL
Temperature
23°C / 73°F
Dewpoint
21°C / 70°F
Humidity
89%
Altimeter
29.94" Hg
Pressure
1013.92 hPa
Current Rain
0.01"
Previous

2 hours ago

KCPS 230153Z VRB03KT 10SM -RA BKN050 BKN065 23/21 A2994 RMK AO2 SLP136 P0000 T02280211
Observed
Sep-23 @ 01:53 UTC
Wind
  • Variable at 3 KTS
Visibility
10 SM
Flight Rules
VFR
Conditions
Light Rain
Cloud Levels
  • Broken at 5,000' AGL
  • Broken at 6,500' AGL
Temperature
23°C / 73°F
Dewpoint
21°C / 70°F
Humidity
89%
Altimeter
29.94" Hg
Pressure
1013.92 hPa
Current Rain
0.01"
Previous

3 hours ago

KCPS 230053Z 20005KT 10SM -RA SCT043 BKN055 22/21 A2994 RMK AO2 RAB04E14B35 SLP134 P0001 T02220206
Observed
Sep-23 @ 00:53 UTC
Wind
  • 200° at 5 KTS
Visibility
10 SM
Flight Rules
VFR
Conditions
Light Rain
Cloud Levels
  • Scattered at 4,300' AGL
  • Broken at 5,500' AGL
Temperature
22°C / 72°F
Dewpoint
21°C / 70°F
Humidity
94%
Altimeter
29.94" Hg
Pressure
1013.92 hPa
Current Rain
0.01"